sensor_id;sensor_type;location;lat;lon;timestamp;P1;durP1;ratioP1;P2;durP2;ratioP2
616;SDS011;295;51.628;7.520;2022-09-29T00:01:42;10.00;;;9.10;;
616;SDS011;295;51.628;7.520;2022-09-29T00:04:41;10.20;;;8.83;;
616;SDS011;295;51.628;7.520;2022-09-29T00:07:56;9.73;;;8.70;;
616;SDS011;295;51.628;7.520;2022-09-29T00:10:53;9.90;;;9.00;;
616;SDS011;295;51.628;7.520;2022-09-29T00:13:47;10.03;;;9.13;;
616;SDS011;295;51.628;7.520;2022-09-29T00:16:41;9.87;;;8.97;;
616;SDS011;295;51.628;7.520;2022-09-29T00:19:48;9.67;;;8.87;;
616;SDS011;295;51.628;7.520;2022-09-29T00:22:39;9.83;;;8.93;;
616;SDS011;295;51.628;7.520;2022-09-29T00:25:44;9.57;;;8.67;;
616;SDS011;295;51.628;7.520;2022-09-29T00:28:40;10.67;;;9.70;;
616;SDS011;295;51.628;7.520;2022-09-29T00:31:40;10.20;;;9.40;;
616;SDS011;295;51.628;7.520;2022-09-29T00:34:38;10.93;;;9.90;;
616;SDS011;295;51.628;7.520;2022-09-29T00:37:40;9.43;;;8.57;;
616;SDS011;295;51.628;7.520;2022-09-29T00:40:38;11.77;;;10.00;;
616;SDS011;295;51.628;7.520;2022-09-29T00:44:03;11.30;;;10.30;;
616;SDS011;295;51.628;7.520;2022-09-29T00:46:56;10.23;;;9.23;;
616;SDS011;295;51.628;7.520;2022-09-29T00:49:54;10.43;;;9.53;;
616;SDS011;295;51.628;7.520;2022-09-29T00:52:54;11.30;;;10.27;;
616;SDS011;295;51.628;7.520;2022-09-29T00:56:08;13.57;;;8.80;;
616;SDS011;295;51.628;7.520;2022-09-29T00:59:18;10.23;;;9.33;;
616;SDS011;295;51.628;7.520;2022-09-29T01:02:17;10.17;;;9.10;;
616;SDS011;295;51.628;7.520;2022-09-29T01:05:16;10.47;;;9.43;;
616;SDS011;295;51.628;7.520;2022-09-29T01:08:10;10.43;;;9.53;;
616;SDS011;295;51.628;7.520;2022-09-29T01:11:06;11.50;;;10.30;;
616;SDS011;295;51.628;7.520;2022-09-29T01:13:59;10.83;;;9.83;;
616;SDS011;295;51.628;7.520;2022-09-29T01:16:56;10.43;;;9.53;;
616;SDS011;295;51.628;7.520;2022-09-29T01:19:53;11.20;;;10.03;;
616;SDS011;295;51.628;7.520;2022-09-29T01:29:26;11.80;;;10.70;;
616;SDS011;295;51.628;7.520;2022-09-29T01:32:38;10.67;;;9.63;;
616;SDS011;295;51.628;7.520;2022-09-29T01:35:49;10.47;;;9.47;;
616;SDS011;295;51.628;7.520;2022-09-29T01:39:09;9.73;;;8.83;;
616;SDS011;295;51.628;7.520;2022-09-29T01:42:10;10.77;;;9.77;;
616;SDS011;295;51.628;7.520;2022-09-29T01:45:08;10.60;;;9.43;;
616;SDS011;295;51.628;7.520;2022-09-29T01:48:18;9.77;;;8.87;;
616;SDS011;295;51.628;7.520;2022-09-29T01:51:18;12.37;;;9.67;;
616;SDS011;295;51.628;7.520;2022-09-29T01:54:17;9.53;;;8.53;;
616;SDS011;295;51.628;7.520;2022-09-29T01:57:16;9.80;;;8.90;;
616;SDS011;295;51.628;7.520;2022-09-29T02:00:10;10.30;;;9.30;;
616;SDS011;295;51.628;7.520;2022-09-29T02:03:19;10.07;;;9.27;;
616;SDS011;295;51.628;7.520;2022-09-29T02:06:22;11.10;;;10.10;;
616;SDS011;295;51.628;7.520;2022-09-29T02:09:21;12.00;;;10.40;;
616;SDS011;295;51.628;7.520;2022-09-29T02:12:15;11.67;;;10.57;;
616;SDS011;295;51.628;7.520;2022-09-29T02:15:13;12.03;;;10.83;;
616;SDS011;295;51.628;7.520;2022-09-29T02:18:23;12.87;;;11.60;;
616;SDS011;295;51.628;7.520;2022-09-29T02:21:23;12.13;;;11.03;;
616;SDS011;295;51.628;7.520;2022-09-29T02:24:20;11.50;;;10.40;;
616;SDS011;295;51.628;7.520;2022-09-29T02:27:26;11.87;;;10.77;;
616;SDS011;295;51.628;7.520;2022-09-29T02:30:28;12.37;;;11.07;;
616;SDS011;295;51.628;7.520;2022-09-29T02:33:38;11.27;;;10.23;;
616;SDS011;295;51.628;7.520;2022-09-29T02:36:38;11.17;;;10.17;;
616;SDS011;295;51.628;7.520;2022-09-29T02:39:38;10.30;;;9.30;;
616;SDS011;295;51.628;7.520;2022-09-29T02:42:36;10.83;;;9.80;;
616;SDS011;295;51.628;7.520;2022-09-29T02:45:34;12.43;;;11.33;;
616;SDS011;295;51.628;7.520;2022-09-29T02:48:32;9.40;;;8.60;;
616;SDS011;295;51.628;7.520;2022-09-29T02:51:30;11.40;;;10.30;;
616;SDS011;295;51.628;7.520;2022-09-29T02:54:34;11.70;;;10.50;;
616;SDS011;295;51.628;7.520;2022-09-29T02:57:37;13.03;;;11.93;;
616;SDS011;295;51.628;7.520;2022-09-29T03:00:35;12.60;;;11.27;;
616;SDS011;295;51.628;7.520;2022-09-29T03:03:30;11.80;;;10.70;;
616;SDS011;295;51.628;7.520;2022-09-29T03:06:37;14.80;;;12.23;;
616;SDS011;295;51.628;7.520;2022-09-29T03:09:27;13.67;;;11.47;;
616;SDS011;295;51.628;7.520;2022-09-29T03:12:22;11.70;;;10.60;;
616;SDS011;295;51.628;7.520;2022-09-29T03:15:19;12.50;;;11.33;;
616;SDS011;295;51.628;7.520;2022-09-29T03:18:13;13.13;;;11.80;;
616;SDS011;295;51.628;7.520;2022-09-29T03:21:17;13.20;;;11.93;;
616;SDS011;295;51.628;7.520;2022-09-29T03:24:09;12.23;;;10.93;;
616;SDS011;295;51.628;7.520;2022-09-29T03:27:00;13.70;;;12.07;;
616;SDS011;295;51.628;7.520;2022-09-29T03:30:07;12.63;;;11.40;;
616;SDS011;295;51.628;7.520;2022-09-29T03:32:57;11.57;;;10.40;;
616;SDS011;295;51.628;7.520;2022-09-29T03:35:54;12.00;;;10.70;;
616;SDS011;295;51.628;7.520;2022-09-29T03:38:49;12.90;;;11.60;;
616;SDS011;295;51.628;7.520;2022-09-29T03:41:55;13.77;;;12.37;;
616;SDS011;295;51.628;7.520;2022-09-29T03:44:56;16.97;;;12.87;;
616;SDS011;295;51.628;7.520;2022-09-29T03:47:50;16.70;;;12.87;;
616;SDS011;295;51.628;7.520;2022-09-29T03:50:47;12.60;;;11.07;;
616;SDS011;295;51.628;7.520;2022-09-29T03:53:41;14.93;;;13.07;;
616;SDS011;295;51.628;7.520;2022-09-29T03:56:37;13.97;;;12.57;;
616;SDS011;295;51.628;7.520;2022-09-29T03:59:57;13.47;;;12.17;;
616;SDS011;295;51.628;7.520;2022-09-29T04:02:48;12.73;;;11.50;;
616;SDS011;295;51.628;7.520;2022-09-29T04:05:38;15.83;;;11.97;;
616;SDS011;295;51.628;7.520;2022-09-29T04:08:31;13.70;;;12.40;;
616;SDS011;295;51.628;7.520;2022-09-29T04:11:28;15.90;;;14.30;;
616;SDS011;295;51.628;7.520;2022-09-29T04:14:31;15.30;;;12.13;;
616;SDS011;295;51.628;7.520;2022-09-29T04:17:31;14.90;;;13.23;;
616;SDS011;295;51.628;7.520;2022-09-29T04:20:28;17.63;;;13.53;;
616;SDS011;295;51.628;7.520;2022-09-29T04:23:25;16.57;;;14.50;;
616;SDS011;295;51.628;7.520;2022-09-29T04:26:28;15.53;;;13.97;;
616;SDS011;295;51.628;7.520;2022-09-29T04:29:25;18.37;;;15.03;;
616;SDS011;295;51.628;7.520;2022-09-29T04:32:27;16.20;;;14.60;;
616;SDS011;295;51.628;7.520;2022-09-29T04:35:34;28.80;;;24.93;;
616;SDS011;295;51.628;7.520;2022-09-29T04:38:27;29.20;;;26.10;;
616;SDS011;295;51.628;7.520;2022-09-29T04:41:20;45.40;;;37.43;;
616;SDS011;295;51.628;7.520;2022-09-29T04:44:18;73.77;;;50.93;;
616;SDS011;295;51.628;7.520;2022-09-29T04:47:14;62.33;;;46.33;;
616;SDS011;295;51.628;7.520;2022-09-29T04:50:06;42.40;;;36.50;;
616;SDS011;295;51.628;7.520;2022-09-29T04:53:13;28.77;;;24.20;;
616;SDS011;295;51.628;7.520;2022-09-29T04:56:07;27.13;;;24.17;;
616;SDS011;295;51.628;7.520;2022-09-29T04:59:04;31.60;;;28.43;;
616;SDS011;295;51.628;7.520;2022-09-29T05:02:02;28.13;;;25.23;;
616;SDS011;295;51.628;7.520;2022-09-29T05:04:56;23.73;;;20.97;;
616;SDS011;295;51.628;7.520;2022-09-29T05:07:52;21.77;;;18.43;;
616;SDS011;295;51.628;7.520;2022-09-29T05:11:03;20.53;;;18.30;;
616;SDS011;295;51.628;7.520;2022-09-29T05:13:57;18.80;;;16.80;;
616;SDS011;295;51.628;7.520;2022-09-29T05:17:01;19.20;;;17.20;;
616;SDS011;295;51.628;7.520;2022-09-29T05:19:58;20.53;;;17.60;;
616;SDS011;295;51.628;7.520;2022-09-29T05:22:53;22.00;;;18.00;;
616;SDS011;295;51.628;7.520;2022-09-29T05:25:46;19.53;;;17.27;;
616;SDS011;295;51.628;7.520;2022-09-29T05:28:50;18.63;;;16.73;;
616;SDS011;295;51.628;7.520;2022-09-29T05:31:43;26.03;;;18.70;;
616;SDS011;295;51.628;7.520;2022-09-29T05:34:35;22.50;;;18.70;;
616;SDS011;295;51.628;7.520;2022-09-29T05:37:35;19.23;;;17.03;;
616;SDS011;295;51.628;7.520;2022-09-29T05:40:29;17.30;;;15.50;;
616;SDS011;295;51.628;7.520;2022-09-29T05:43:29;18.93;;;17.03;;
616;SDS011;295;51.628;7.520;2022-09-29T05:46:23;19.00;;;17.10;;
616;SDS011;295;51.628;7.520;2022-09-29T05:49:20;18.40;;;15.57;;
616;SDS011;295;51.628;7.520;2022-09-29T05:52:24;16.47;;;14.63;;
616;SDS011;295;51.628;7.520;2022-09-29T05:55:16;19.20;;;17.30;;
616;SDS011;295;51.628;7.520;2022-09-29T05:58:13;17.63;;;15.93;;
616;SDS011;295;51.628;7.520;2022-09-29T06:01:08;17.70;;;15.90;;
616;SDS011;295;51.628;7.520;2022-09-29T06:04:23;17.87;;;15.43;;
616;SDS011;295;51.628;7.520;2022-09-29T06:07:13;17.57;;;15.77;;
616;SDS011;295;51.628;7.520;2022-09-29T06:10:10;17.20;;;15.57;;
616;SDS011;295;51.628;7.520;2022-09-29T06:13:03;18.77;;;16.87;;
616;SDS011;295;51.628;7.520;2022-09-29T06:16:03;20.07;;;18.17;;
616;SDS011;295;51.628;7.520;2022-09-29T06:19:08;21.23;;;18.67;;
616;SDS011;295;51.628;7.520;2022-09-29T06:22:18;20.23;;;17.50;;
616;SDS011;295;51.628;7.520;2022-09-29T06:25:26;21.83;;;18.50;;
616;SDS011;295;51.628;7.520;2022-09-29T06:28:17;21.50;;;19.40;;
616;SDS011;295;51.628;7.520;2022-09-29T06:31:13;20.10;;;18.10;;
616;SDS011;295;51.628;7.520;2022-09-29T06:34:10;19.73;;;17.67;;
616;SDS011;295;51.628;7.520;2022-09-29T06:37:05;19.23;;;17.43;;
616;SDS011;295;51.628;7.520;2022-09-29T06:40:25;19.40;;;17.50;;
616;SDS011;295;51.628;7.520;2022-09-29T06:43:26;19.83;;;17.93;;
616;SDS011;295;51.628;7.520;2022-09-29T06:46:30;18.60;;;16.90;;
616;SDS011;295;51.628;7.520;2022-09-29T06:49:34;18.30;;;16.53;;
616;SDS011;295;51.628;7.520;2022-09-29T06:52:47;19.13;;;17.13;;
616;SDS011;295;51.628;7.520;2022-09-29T06:55:55;25.43;;;22.93;;
616;SDS011;295;51.628;7.520;2022-09-29T06:58:48;22.37;;;19.10;;
616;SDS011;295;51.628;7.520;2022-09-29T07:01:54;16.73;;;15.03;;
616;SDS011;295;51.628;7.520;2022-09-29T07:04:44;16.13;;;14.63;;
616;SDS011;295;51.628;7.520;2022-09-29T07:07:41;14.80;;;13.13;;
616;SDS011;295;51.628;7.520;2022-09-29T07:10:38;11.57;;;10.57;;
616;SDS011;295;51.628;7.520;2022-09-29T07:13:40;14.40;;;13.00;;
616;SDS011;295;51.628;7.520;2022-09-29T07:16:42;15.70;;;9.57;;
616;SDS011;295;51.628;7.520;2022-09-29T07:19:36;11.17;;;7.77;;
616;SDS011;295;51.628;7.520;2022-09-29T07:22:38;7.33;;;5.90;;
616;SDS011;295;51.628;7.520;2022-09-29T07:25:41;9.60;;;6.80;;
616;SDS011;295;51.628;7.520;2022-09-29T07:28:42;10.90;;;6.70;;
616;SDS011;295;51.628;7.520;2022-09-29T07:31:39;9.40;;;7.27;;
616;SDS011;295;51.628;7.520;2022-09-29T07:34:38;9.43;;;7.07;;
616;SDS011;295;51.628;7.520;2022-09-29T07:37:32;8.03;;;7.10;;
616;SDS011;295;51.628;7.520;2022-09-29T07:40:26;8.50;;;6.97;;
616;SDS011;295;51.628;7.520;2022-09-29T07:43:23;9.00;;;6.90;;
616;SDS011;295;51.628;7.520;2022-09-29T07:46:20;8.40;;;6.83;;
616;SDS011;295;51.628;7.520;2022-09-29T07:49:18;7.53;;;6.70;;
616;SDS011;295;51.628;7.520;2022-09-29T07:52:14;6.67;;;5.90;;
616;SDS011;295;51.628;7.520;2022-09-29T07:55:12;7.13;;;6.43;;
616;SDS011;295;51.628;7.520;2022-09-29T07:58:13;8.03;;;6.87;;
616;SDS011;295;51.628;7.520;2022-09-29T08:01:10;9.33;;;6.93;;
616;SDS011;295;51.628;7.520;2022-09-29T08:04:04;11.23;;;9.20;;
616;SDS011;295;51.628;7.520;2022-09-29T08:06:59;9.47;;;8.47;;
616;SDS011;295;51.628;7.520;2022-09-29T08:09:53;14.80;;;9.00;;
616;SDS011;295;51.628;7.520;2022-09-29T08:12:56;9.23;;;8.33;;
616;SDS011;295;51.628;7.520;2022-09-29T08:15:55;9.27;;;8.37;;
616;SDS011;295;51.628;7.520;2022-09-29T08:18:53;13.30;;;8.80;;
616;SDS011;295;51.628;7.520;2022-09-29T08:21:54;9.10;;;8.20;;
616;SDS011;295;51.628;7.520;2022-09-29T08:24:44;9.68;;;8.68;;
616;SDS011;295;51.628;7.520;2022-09-29T08:27:41;10.40;;;9.07;;
616;SDS011;295;51.628;7.520;2022-09-29T08:30:46;9.82;;;8.82;;
616;SDS011;295;51.628;7.520;2022-09-29T08:33:50;10.27;;;9.15;;
616;SDS011;295;51.628;7.520;2022-09-29T08:36:42;9.52;;;7.82;;
616;SDS011;295;51.628;7.520;2022-09-29T08:39:36;9.52;;;8.75;;
616;SDS011;295;51.628;7.520;2022-09-29T08:42:44;10.60;;;8.32;;
616;SDS011;295;51.628;7.520;2022-09-29T08:45:42;10.85;;;8.70;;
616;SDS011;295;51.628;7.520;2022-09-29T08:48:47;9.10;;;8.25;;
616;SDS011;295;51.628;7.520;2022-09-29T08:51:50;6.80;;;5.95;;
616;SDS011;295;51.628;7.520;2022-09-29T08:55:09;7.13;;;6.50;;
616;SDS011;295;51.628;7.520;2022-09-29T08:58:10;8.85;;;6.88;;
616;SDS011;295;51.628;7.520;2022-09-29T09:01:16;7.70;;;7.10;;
616;SDS011;295;51.628;7.520;2022-09-29T09:04:26;8.02;;;6.93;;
616;SDS011;295;51.628;7.520;2022-09-29T09:07:27;6.45;;;5.85;;
616;SDS011;295;51.628;7.520;2022-09-29T09:10:38;7.13;;;6.53;;
616;SDS011;295;51.628;7.520;2022-09-29T09:13:51;7.40;;;6.70;;
616;SDS011;295;51.628;7.520;2022-09-29T09:20:24;7.13;;;6.40;;
616;SDS011;295;51.628;7.520;2022-09-29T09:23:21;6.38;;;5.78;;
616;SDS011;295;51.628;7.520;2022-09-29T09:26:21;8.15;;;5.68;;
616;SDS011;295;51.628;7.520;2022-09-29T09:29:20;6.97;;;6.28;;
616;SDS011;295;51.628;7.520;2022-09-29T09:32:16;7.50;;;6.72;;
616;SDS011;295;51.628;7.520;2022-09-29T09:35:19;8.40;;;7.80;;
616;SDS011;295;51.628;7.520;2022-09-29T09:38:14;9.02;;;7.80;;
616;SDS011;295;51.628;7.520;2022-09-29T09:41:16;6.18;;;5.68;;
616;SDS011;295;51.628;7.520;2022-09-29T09:44:34;7.20;;;6.50;;
616;SDS011;295;51.628;7.520;2022-09-29T09:47:28;7.47;;;6.82;;
616;SDS011;295;51.628;7.520;2022-09-29T09:50:27;7.72;;;7.03;;
616;SDS011;295;51.628;7.520;2022-09-29T09:53:21;7.88;;;7.15;;
616;SDS011;295;51.628;7.520;2022-09-29T09:56:27;9.95;;;9.05;;
616;SDS011;295;51.628;7.520;2022-09-29T09:59:37;9.23;;;8.30;;
616;SDS011;295;51.628;7.520;2022-09-29T10:02:32;10.00;;;8.32;;
616;SDS011;295;51.628;7.520;2022-09-29T10:05:29;8.00;;;7.40;;
616;SDS011;295;51.628;7.520;2022-09-29T10:08:29;8.40;;;7.70;;
616;SDS011;295;51.628;7.520;2022-09-29T10:11:31;8.23;;;7.05;;
616;SDS011;295;51.628;7.520;2022-09-29T10:14:26;7.10;;;6.60;;
616;SDS011;295;51.628;7.520;2022-09-29T10:17:24;7.53;;;6.85;;
616;SDS011;295;51.628;7.520;2022-09-29T10:20:28;7.13;;;6.50;;
616;SDS011;295;51.628;7.520;2022-09-29T10:23:32;12.18;;;5.90;;
616;SDS011;295;51.628;7.520;2022-09-29T10:26:26;5.93;;;5.32;;
616;SDS011;295;51.628;7.520;2022-09-29T10:29:20;7.70;;;5.83;;
616;SDS011;295;51.628;7.520;2022-09-29T10:32:20;5.57;;;5.07;;
616;SDS011;295;51.628;7.520;2022-09-29T10:35:27;8.20;;;5.00;;
616;SDS011;295;51.628;7.520;2022-09-29T10:38:31;4.80;;;4.30;;
616;SDS011;295;51.628;7.520;2022-09-29T10:41:51;5.40;;;4.90;;
616;SDS011;295;51.628;7.520;2022-09-29T10:44:47;5.57;;;2.83;;
616;SDS011;295;51.628;7.520;2022-09-29T10:47:47;3.78;;;2.50;;
616;SDS011;295;51.628;7.520;2022-09-29T10:50:54;3.03;;;2.13;;
616;SDS011;295;51.628;7.520;2022-09-29T10:53:48;2.67;;;2.47;;
616;SDS011;295;51.628;7.520;2022-09-29T10:56:52;4.32;;;3.38;;
616;SDS011;295;51.628;7.520;2022-09-29T10:59:46;4.82;;;4.50;;
616;SDS011;295;51.628;7.520;2022-09-29T11:02:47;5.28;;;4.88;;
616;SDS011;295;51.628;7.520;2022-09-29T11:06:04;5.28;;;3.78;;
616;SDS011;295;51.628;7.520;2022-09-29T11:09:04;3.90;;;3.17;;
616;SDS011;295;51.628;7.520;2022-09-29T11:12:01;3.00;;;2.80;;
616;SDS011;295;51.628;7.520;2022-09-29T11:15:00;3.13;;;2.75;;
616;SDS011;295;51.628;7.520;2022-09-29T11:17:58;3.58;;;2.47;;
616;SDS011;295;51.628;7.520;2022-09-29T11:21:02;3.75;;;2.28;;
616;SDS011;295;51.628;7.520;2022-09-29T11:24:00;2.40;;;2.17;;
616;SDS011;295;51.628;7.520;2022-09-29T11:26:59;3.08;;;1.63;;
616;SDS011;295;51.628;7.520;2022-09-29T11:29:59;2.10;;;1.90;;
616;SDS011;295;51.628;7.520;2022-09-29T11:33:01;2.80;;;2.10;;
616;SDS011;295;51.628;7.520;2022-09-29T11:36:06;2.67;;;1.98;;
616;SDS011;295;51.628;7.520;2022-09-29T11:39:09;2.42;;;2.22;;
616;SDS011;295;51.628;7.520;2022-09-29T11:42:17;3.05;;;2.60;;
616;SDS011;295;51.628;7.520;2022-09-29T11:45:09;3.03;;;2.08;;
616;SDS011;295;51.628;7.520;2022-09-29T11:48:18;3.08;;;2.22;;
616;SDS011;295;51.628;7.520;2022-09-29T11:51:20;4.32;;;2.78;;
616;SDS011;295;51.628;7.520;2022-09-29T11:54:29;3.35;;;2.80;;
616;SDS011;295;51.628;7.520;2022-09-29T11:57:30;3.10;;;2.38;;
616;SDS011;295;51.628;7.520;2022-09-29T12:00:28;3.20;;;2.40;;
616;SDS011;295;51.628;7.520;2022-09-29T12:03:31;2.03;;;1.83;;
616;SDS011;295;51.628;7.520;2022-09-29T12:10:02;2.58;;;2.00;;
616;SDS011;295;51.628;7.520;2022-09-29T12:13:00;3.65;;;1.80;;
616;SDS011;295;51.628;7.520;2022-09-29T12:15:58;1.80;;;1.70;;
616;SDS011;295;51.628;7.520;2022-09-29T12:18:58;3.58;;;1.80;;
616;SDS011;295;51.628;7.520;2022-09-29T12:22:16;1.83;;;1.63;;
616;SDS011;295;51.628;7.520;2022-09-29T12:25:12;3.57;;;2.00;;
616;SDS011;295;51.628;7.520;2022-09-29T12:28:10;2.00;;;1.80;;
616;SDS011;295;51.628;7.520;2022-09-29T12:31:14;3.60;;;2.33;;
616;SDS011;295;51.628;7.520;2022-09-29T12:34:10;2.30;;;1.93;;
616;SDS011;295;51.628;7.520;2022-09-29T12:37:09;6.90;;;1.93;;
616;SDS011;295;51.628;7.520;2022-09-29T12:40:09;1.63;;;1.30;;
616;SDS011;295;51.628;7.520;2022-09-29T12:43:10;1.67;;;1.58;;
616;SDS011;295;51.628;7.520;2022-09-29T12:46:18;4.50;;;1.48;;
616;SDS011;295;51.628;7.520;2022-09-29T12:49:20;6.53;;;2.38;;
616;SDS011;295;51.628;7.520;2022-09-29T12:52:14;4.35;;;2.08;;
616;SDS011;295;51.628;7.520;2022-09-29T12:55:12;1.90;;;1.65;;
616;SDS011;295;51.628;7.520;2022-09-29T12:58:17;6.15;;;1.95;;
616;SDS011;295;51.628;7.520;2022-09-29T13:01:18;5.20;;;1.70;;
616;SDS011;295;51.628;7.520;2022-09-29T13:04:24;4.10;;;1.90;;
616;SDS011;295;51.628;7.520;2022-09-29T13:10:46;1.57;;;1.47;;
616;SDS011;295;51.628;7.520;2022-09-29T13:17:27;2.97;;;1.98;;
616;SDS011;295;51.628;7.520;2022-09-29T13:20:41;3.30;;;2.22;;
616;SDS011;295;51.628;7.520;2022-09-29T13:24:00;2.75;;;1.88;;
616;SDS011;295;51.628;7.520;2022-09-29T13:27:07;2.35;;;2.15;;
616;SDS011;295;51.628;7.520;2022-09-29T13:30:03;2.58;;;2.22;;
616;SDS011;295;51.628;7.520;2022-09-29T13:39:43;2.40;;;2.20;;
616;SDS011;295;51.628;7.520;2022-09-29T13:42:50;3.90;;;2.28;;
616;SDS011;295;51.628;7.520;2022-09-29T13:45:45;2.92;;;2.10;;
616;SDS011;295;51.628;7.520;2022-09-29T13:48:52;3.63;;;2.50;;
616;SDS011;295;51.628;7.520;2022-09-29T13:51:58;2.33;;;1.97;;
616;SDS011;295;51.628;7.520;2022-09-29T13:55:07;2.27;;;1.60;;
616;SDS011;295;51.628;7.520;2022-09-29T13:58:24;3.50;;;1.77;;
616;SDS011;295;51.628;7.520;2022-09-29T14:01:28;3.60;;;2.60;;
616;SDS011;295;51.628;7.520;2022-09-29T14:04:36;2.47;;;2.17;;
616;SDS011;295;51.628;7.520;2022-09-29T14:07:37;2.63;;;1.97;;
616;SDS011;295;51.628;7.520;2022-09-29T14:10:46;4.80;;;2.60;;
616;SDS011;295;51.628;7.520;2022-09-29T14:13:48;2.57;;;1.87;;
616;SDS011;295;51.628;7.520;2022-09-29T14:16:45;3.60;;;2.23;;
616;SDS011;295;51.628;7.520;2022-09-29T14:19:49;6.43;;;4.00;;
616;SDS011;295;51.628;7.520;2022-09-29T14:22:56;4.20;;;2.90;;
616;SDS011;295;51.628;7.520;2022-09-29T14:25:53;1.70;;;1.60;;
616;SDS011;295;51.628;7.520;2022-09-29T14:28:45;3.53;;;2.00;;
616;SDS011;295;51.628;7.520;2022-09-29T14:31:40;2.47;;;1.52;;
616;SDS011;295;51.628;7.520;2022-09-29T14:34:40;3.20;;;1.80;;
616;SDS011;295;51.628;7.520;2022-09-29T14:37:39;1.80;;;1.70;;
616;SDS011;295;51.628;7.520;2022-09-29T14:40:33;2.72;;;2.00;;
616;SDS011;295;51.628;7.520;2022-09-29T14:43:41;3.08;;;2.15;;
616;SDS011;295;51.628;7.520;2022-09-29T14:46:43;2.90;;;2.05;;
616;SDS011;295;51.628;7.520;2022-09-29T14:50:03;2.08;;;1.88;;
616;SDS011;295;51.628;7.520;2022-09-29T14:56:41;4.80;;;2.30;;
616;SDS011;295;51.628;7.520;2022-09-29T14:59:59;5.53;;;1.83;;
616;SDS011;295;51.628;7.520;2022-09-29T15:02:53;2.13;;;1.83;;
616;SDS011;295;51.628;7.520;2022-09-29T15:06:12;1.87;;;1.70;;
616;SDS011;295;51.628;7.520;2022-09-29T15:09:12;2.90;;;1.90;;
616;SDS011;295;51.628;7.520;2022-09-29T15:12:13;8.73;;;2.30;;
616;SDS011;295;51.628;7.520;2022-09-29T15:18:27;2.97;;;1.80;;
616;SDS011;295;51.628;7.520;2022-09-29T15:21:29;4.07;;;2.00;;
616;SDS011;295;51.628;7.520;2022-09-29T15:24:29;2.27;;;2.07;;
616;SDS011;295;51.628;7.520;2022-09-29T15:27:40;1.93;;;1.50;;
616;SDS011;295;51.628;7.520;2022-09-29T15:30:43;2.83;;;1.90;;
616;SDS011;295;51.628;7.520;2022-09-29T15:33:41;4.47;;;2.10;;
616;SDS011;295;51.628;7.520;2022-09-29T15:36:36;2.40;;;1.60;;
616;SDS011;295;51.628;7.520;2022-09-29T15:39:40;4.67;;;2.00;;
616;SDS011;295;51.628;7.520;2022-09-29T15:42:36;4.40;;;2.10;;
616;SDS011;295;51.628;7.520;2022-09-29T15:45:33;2.70;;;1.50;;
616;SDS011;295;51.628;7.520;2022-09-29T15:48:24;3.80;;;2.10;;
616;SDS011;295;51.628;7.520;2022-09-29T15:51:30;4.30;;;2.33;;
616;SDS011;295;51.628;7.520;2022-09-29T15:54:40;3.30;;;1.50;;
616;SDS011;295;51.628;7.520;2022-09-29T15:57:41;2.67;;;2.40;;
616;SDS011;295;51.628;7.520;2022-09-29T16:00:48;2.43;;;2.23;;
616;SDS011;295;51.628;7.520;2022-09-29T16:03:42;3.53;;;3.23;;
616;SDS011;295;51.628;7.520;2022-09-29T16:06:52;6.20;;;3.20;;
616;SDS011;295;51.628;7.520;2022-09-29T16:09:43;3.07;;;2.77;;
616;SDS011;295;51.628;7.520;2022-09-29T16:12:37;5.17;;;2.97;;
616;SDS011;295;51.628;7.520;2022-09-29T16:15:40;4.60;;;3.50;;
616;SDS011;295;51.628;7.520;2022-09-29T16:18:40;4.97;;;3.27;;
616;SDS011;295;51.628;7.520;2022-09-29T16:21:48;6.20;;;2.93;;
616;SDS011;295;51.628;7.520;2022-09-29T16:24:55;3.67;;;3.07;;
616;SDS011;295;51.628;7.520;2022-09-29T16:28:02;3.90;;;3.00;;
616;SDS011;295;51.628;7.520;2022-09-29T16:31:00;5.33;;;2.73;;
616;SDS011;295;51.628;7.520;2022-09-29T16:34:10;4.47;;;3.60;;
616;SDS011;295;51.628;7.520;2022-09-29T16:37:30;5.23;;;3.47;;
616;SDS011;295;51.628;7.520;2022-09-29T16:40:21;3.63;;;3.10;;
616;SDS011;295;51.628;7.520;2022-09-29T16:43:18;10.83;;;3.27;;
616;SDS011;295;51.628;7.520;2022-09-29T16:46:17;3.60;;;3.30;;
616;SDS011;295;51.628;7.520;2022-09-29T16:49:15;3.83;;;3.40;;
616;SDS011;295;51.628;7.520;2022-09-29T16:52:14;8.43;;;4.70;;
616;SDS011;295;51.628;7.520;2022-09-29T16:55:28;6.10;;;4.53;;
616;SDS011;295;51.628;7.520;2022-09-29T16:58:20;6.23;;;5.43;;
616;SDS011;295;51.628;7.520;2022-09-29T17:01:14;8.10;;;6.10;;
616;SDS011;295;51.628;7.520;2022-09-29T17:04:20;6.20;;;5.57;;
616;SDS011;295;51.628;7.520;2022-09-29T17:07:14;6.10;;;5.50;;
616;SDS011;295;51.628;7.520;2022-09-29T17:10:13;9.00;;;5.10;;
616;SDS011;295;51.628;7.520;2022-09-29T17:13:28;7.33;;;6.37;;
616;SDS011;295;51.628;7.520;2022-09-29T17:16:23;6.33;;;5.50;;
616;SDS011;295;51.628;7.520;2022-09-29T17:19:17;6.90;;;5.43;;
616;SDS011;295;51.628;7.520;2022-09-29T17:25:29;6.50;;;5.87;;
616;SDS011;295;51.628;7.520;2022-09-29T17:28:34;8.50;;;5.47;;
616;SDS011;295;51.628;7.520;2022-09-29T17:31:24;7.33;;;5.97;;
616;SDS011;295;51.628;7.520;2022-09-29T17:34:19;6.53;;;5.57;;
616;SDS011;295;51.628;7.520;2022-09-29T17:37:17;6.27;;;5.67;;
616;SDS011;295;51.628;7.520;2022-09-29T17:40:18;7.27;;;6.53;;
616;SDS011;295;51.628;7.520;2022-09-29T17:43:26;5.23;;;4.83;;
616;SDS011;295;51.628;7.520;2022-09-29T17:46:33;6.70;;;6.17;;
616;SDS011;295;51.628;7.520;2022-09-29T17:49:27;6.03;;;5.43;;
616;SDS011;295;51.628;7.520;2022-09-29T17:52:27;6.70;;;6.10;;
616;SDS011;295;51.628;7.520;2022-09-29T17:55:23;8.17;;;5.87;;
616;SDS011;295;51.628;7.520;2022-09-29T17:58:14;7.80;;;6.37;;
616;SDS011;295;51.628;7.520;2022-09-29T18:01:21;9.13;;;7.10;;
616;SDS011;295;51.628;7.520;2022-09-29T18:04:21;9.23;;;8.33;;
616;SDS011;295;51.628;7.520;2022-09-29T18:07:14;9.10;;;7.87;;
616;SDS011;295;51.628;7.520;2022-09-29T18:10:17;11.30;;;7.87;;
616;SDS011;295;51.628;7.520;2022-09-29T18:13:08;9.67;;;8.67;;
616;SDS011;295;51.628;7.520;2022-09-29T18:16:00;9.53;;;8.20;;
616;SDS011;295;51.628;7.520;2022-09-29T18:19:12;8.13;;;7.33;;
616;SDS011;295;51.628;7.520;2022-09-29T18:22:10;8.83;;;6.70;;
616;SDS011;295;51.628;7.520;2022-09-29T18:25:01;8.60;;;7.80;;
616;SDS011;295;51.628;7.520;2022-09-29T18:27:52;8.90;;;8.07;;
616;SDS011;295;51.628;7.520;2022-09-29T18:30:50;9.00;;;8.20;;
616;SDS011;295;51.628;7.520;2022-09-29T18:33:43;11.53;;;10.63;;
616;SDS011;295;51.628;7.520;2022-09-29T18:36:43;11.60;;;10.60;;
616;SDS011;295;51.628;7.520;2022-09-29T18:39:41;9.80;;;9.00;;
616;SDS011;295;51.628;7.520;2022-09-29T18:42:39;10.30;;;9.30;;
616;SDS011;295;51.628;7.520;2022-09-29T18:45:34;10.80;;;9.73;;
616;SDS011;295;51.628;7.520;2022-09-29T18:48:31;9.73;;;8.93;;
616;SDS011;295;51.628;7.520;2022-09-29T18:51:25;10.20;;;9.30;;
616;SDS011;295;51.628;7.520;2022-09-29T18:54:41;11.40;;;10.40;;
616;SDS011;295;51.628;7.520;2022-09-29T18:57:39;10.70;;;9.23;;
616;SDS011;295;51.628;7.520;2022-09-29T19:00:33;11.20;;;10.30;;
616;SDS011;295;51.628;7.520;2022-09-29T19:03:27;12.07;;;10.93;;
616;SDS011;295;51.628;7.520;2022-09-29T19:06:24;12.20;;;11.20;;
616;SDS011;295;51.628;7.520;2022-09-29T19:09:14;10.23;;;9.17;;
616;SDS011;295;51.628;7.520;2022-09-29T19:12:30;10.43;;;9.50;;
616;SDS011;295;51.628;7.520;2022-09-29T19:15:27;13.20;;;11.03;;
616;SDS011;295;51.628;7.520;2022-09-29T19:18:33;10.70;;;9.60;;
616;SDS011;295;51.628;7.520;2022-09-29T19:21:29;12.47;;;10.83;;
616;SDS011;295;51.628;7.520;2022-09-29T19:24:28;11.93;;;9.67;;
616;SDS011;295;51.628;7.520;2022-09-29T19:27:22;11.27;;;9.83;;
616;SDS011;295;51.628;7.520;2022-09-29T19:30:16;10.27;;;9.27;;
616;SDS011;295;51.628;7.520;2022-09-29T19:33:11;10.33;;;9.37;;
616;SDS011;295;51.628;7.520;2022-09-29T19:36:07;11.60;;;9.57;;
616;SDS011;295;51.628;7.520;2022-09-29T19:39:06;10.27;;;9.30;;
616;SDS011;295;51.628;7.520;2022-09-29T19:42:05;14.90;;;10.80;;